NCAR-RAP Real-Time Weather Data

Output produced by METARs form (17 September 2019  16:49 UTC)
found at http://weather.rap.ucar.edu/surface/
 
KYKM 171553Z 10SM SCT060 BKN110 14/08 A2985 RMK AO2 SLP108 T01390078
KYKM 171453Z 36004KT 10SM SCT065 BKN120 11/07 A2987 RMK AO2 SLP114 T01110067 56006
KYKM 171353Z VRB03KT 10SM SCT065 06/04 A2987 RMK AO2 SLP117 T00610044
KYKM 171253Z 00000KT 10SM CLR 06/04 A2987 RMK AO2 SLP115 T00610044
KYKM 171153Z AUTO 00000KT 10SM CLR 07/04 A2989 RMK AO2 SLP120 T00670039 10106 20050 50004
KYKM 171053Z AUTO 26003KT 10SM CLR 06/03 A2989 RMK AO2 SLP122 T00560033
KYKM 170953Z AUTO 27007KT 10SM CLR 06/03 A2989 RMK AO2 SLP121 T00560033
KYKM 170853Z AUTO 23004KT 10SM CLR 06/04 A2987 RMK AO2 SLP116 T00610039 53008
KYKM 170753Z AUTO 27003KT 10SM CLR 08/04 A2986 RMK AO2 SLP111 T00780044 402060067
KYKM 170653Z AUTO 25003KT 10SM FEW049 08/05 A2985 RMK AO2 SLP110 T00780050
KYKM 170553Z AUTO 00000KT 10SM CLR 11/06 A2985 RMK AO2 SLP108 T01060061 10200 20100 53007
KYKM 170453Z 27005KT 10SM CLR 12/06 A2984 RMK AO2 SLP103 T01220061
KYKM 170353Z 32007KT 10SM SCT080 13/08 A2983 RMK AO2 SLP102 T01330083
KYKM 170253Z 18003KT 10SM BKN080 16/08 A2983 RMK AO2 SLP100 T01560083 53012
KYKM 170053Z 18005KT 10SM SCT070 19/08 A2980 RMK AO2 SLP089 T01890083
KYKM 162353Z AUTO 17006KT 10SM SCT110 19/07 A2979 RMK AO2 SLP087 T01940067 10206 20150 53002
KYKM 162253Z 14007KT 10SM SCT070 19/06 A2978 RMK AO2 SLP084 T01940061
KYKM 162153Z VRB03KT 10SM SCT070 20/06 A2978 RMK AO2 SLP083 T02000061